Sovereign — 9HUE9 — position and weather

sailwx.info

Track history (hours):
 
Tides and Currents Weather Stations Pressure Air Temp Water Temp Dewpoint Dewpoint Depression Visibility Wind Speed Wind Dir Waves Ship Positions

Sovereign

Last reported at 2020-Jan-18 00:42 UTC. Time now 2020-Jan-19 16:53 UTC.
Position S 23°12' W 043°26'.

Length 269 m; draft 7.8 m.

Type: Passenger vessel. MMSI: 249539000.

Date/timePositionNaut miles runAvg speedWind from/ knotsBaromVisibWave heightAir tempDewpointWater temp
2020-Jan-18 00:42S 23°12' W 043°26'811.6
2020-Jan-18 00:00S 23°08' W 043°19'16 3.9
2020-Jan-17 19:59S 22°54' W 043°11'0 0.0
2020-Jan-17 18:29S 22°54' W 043°11'0 0.0
2020-Jan-17 17:23S 22°54' W 043°11'0 0.0
2020-Jan-17 16:29S 22°54' W 043°11'0 0.0
2020-Jan-17 14:59S 22°54' W 043°11'1 0.2
2020-Jan-17 11:30S 22°53' W 043°11'3411.4
2020-Jan-17 08:30S 23°20' W 043°34'15510.3
2020-Jan-16 17:29S 23°57' W 046°19'0 0.0
2020-Jan-16 16:59S 23°57' W 046°19'0 0.0
2020-Jan-16 13:59S 23°57' W 046°19'0 0.0
2020-Jan-16 12:59S 23°57' W 046°19'0 0.0
2020-Jan-16 12:29S 23°57' W 046°19'0 0.0
2020-Jan-16 11:53S 23°57' W 046°19'0 0.0
2020-Jan-16 10:59S 23°57' W 046°19'2 1.5
2020-Jan-16 09:25S 23°60' W 046°19'145 7.5
2020-Jan-15 13:59S 23°47' W 043°41'14 8.9
2020-Jan-15 12:26S 23°43' W 043°27'9 9.4
2020-Jan-15 11:27S 23°40' W 043°17'92 8.0
2020-Jan-14 23:57S 22°53' W 041°52'73 2.7
2020-Jan-13 20:28S 22°54' W 043°11'0 0.0
2020-Jan-13 17:58S 22°54' W 043°11'0 0.0
2020-Jan-13 16:58S 22°54' W 043°11'3 0.6
2020-Jan-13 12:00S 22°55' W 043°09'1211.8
2020-Jan-13 11:00S 23°07' W 043°11'4314.1
2020-Jan-13 07:59S 23°28' W 043°52'13812.0
2020-Jan-12 20:29S 23°57' W 046°19'0 0.0
2020-Jan-12 18:29S 23°57' W 046°19'0 0.0
2020-Jan-12 17:17S 23°57' W 046°19'0 0.0
2020-Jan-12 16:29S 23°57' W 046°19'0 0.0
2020-Jan-12 15:59S 23°57' W 046°19'0 0.0
2020-Jan-12 15:26S 23°57' W 046°19'0 0.0
2020-Jan-12 12:17S 23°57' W 046°19'0 0.0
2020-Jan-12 11:28S 23°57' W 046°19'3 3.3
2020-Jan-12 10:30S 23°60' W 046°20'  
2020-Jan-10 00:42S 23°12' W 043°26'2411.0
2020-Jan-09 22:30S 22°54' W 043°09'1 0.4
2020-Jan-09 18:58S 22°54' W 043°11'0 0.0
2020-Jan-09 17:28S 22°54' W 043°11'0 0.0
2020-Jan-09 14:22S 22°54' W 043°11'21 4.3
2020-Jan-09 09:30S 23°13' W 043°18'814.9
2020-Jan-09 09:00S 23°17' W 043°26'815.2
2020-Jan-09 08:29S 23°20' W 043°34'15713.3
2020-Jan-08 20:42S 23°60' W 046°20'2 7.3
2020-Jan-08 20:24S 23°59' W 046°17'2 2.0
2020-Jan-08 19:26S 23°57' W 046°19'0 0.0
2020-Jan-08 18:56S 23°57' W 046°19'0 0.0
2020-Jan-08 17:59S 23°57' W 046°19'0 0.0
2020-Jan-08 17:26S 23°57' W 046°19'0 0.0
2020-Jan-08 15:14S 23°57' W 046°19'0 0.0
2020-Jan-08 14:56S 23°57' W 046°19'0 0.0
2020-Jan-08 13:56S 23°57' W 046°19'0 0.0
2020-Jan-08 12:50S 23°57' W 046°19'1 0.3
2020-Jan-08 09:30S 23°58' W 046°18'3 6.2
2020-Jan-08 09:00S 24°00' W 046°20'  
Track history (hours):
 
Tides and Currents Weather Stations Pressure Air Temp Water Temp Dewpoint Dewpoint Depression Visibility Wind Speed Wind Dir Waves Ship Positions

Sovereign

Last reported at 2020-Jan-18 00:42 UTC. Time now 2020-Jan-19 16:53 UTC.
Position S 23°12' W 043°26'.

Length 269 m; draft 7.8 m.

Type: Passenger vessel. MMSI: 249539000.

Date/timePositionNaut miles runAvg speedWind from/ knotsBaromVisibWave heightAir tempDewpointWater temp
2020-Jan-18 00:42S 23°12' W 043°26'811.6
2020-Jan-18 00:00S 23°08' W 043°19'16 3.9
2020-Jan-17 19:59S 22°54' W 043°11'0 0.0
2020-Jan-17 18:29S 22°54' W 043°11'0 0.0
2020-Jan-17 17:23S 22°54' W 043°11'0 0.0
2020-Jan-17 16:29S 22°54' W 043°11'0 0.0
2020-Jan-17 14:59S 22°54' W 043°11'1 0.2
2020-Jan-17 11:30S 22°53' W 043°11'3411.4
2020-Jan-17 08:30S 23°20' W 043°34'15510.3
2020-Jan-16 17:29S 23°57' W 046°19'0 0.0
2020-Jan-16 16:59S 23°57' W 046°19'0 0.0
2020-Jan-16 13:59S 23°57' W 046°19'0 0.0
2020-Jan-16 12:59S 23°57' W 046°19'0 0.0
2020-Jan-16 12:29S 23°57' W 046°19'0 0.0
2020-Jan-16 11:53S 23°57' W 046°19'0 0.0
2020-Jan-16 10:59S 23°57' W 046°19'2 1.5
2020-Jan-16 09:25S 23°60' W 046°19'145 7.5
2020-Jan-15 13:59S 23°47' W 043°41'14 8.9
2020-Jan-15 12:26S 23°43' W 043°27'9 9.4
2020-Jan-15 11:27S 23°40' W 043°17'92 8.0
2020-Jan-14 23:57S 22°53' W 041°52'73 2.7
2020-Jan-13 20:28S 22°54' W 043°11'0 0.0
2020-Jan-13 17:58S 22°54' W 043°11'0 0.0
2020-Jan-13 16:58S 22°54' W 043°11'3 0.6
2020-Jan-13 12:00S 22°55' W 043°09'1211.8
2020-Jan-13 11:00S 23°07' W 043°11'4314.1
2020-Jan-13 07:59S 23°28' W 043°52'13812.0
2020-Jan-12 20:29S 23°57' W 046°19'0 0.0
2020-Jan-12 18:29S 23°57' W 046°19'0 0.0
2020-Jan-12 17:17S 23°57' W 046°19'0 0.0
2020-Jan-12 16:29S 23°57' W 046°19'0 0.0
2020-Jan-12 15:59S 23°57' W 046°19'0 0.0
2020-Jan-12 15:26S 23°57' W 046°19'0 0.0
2020-Jan-12 12:17S 23°57' W 046°19'0 0.0
2020-Jan-12 11:28S 23°57' W 046°19'3 3.3
2020-Jan-12 10:30S 23°60' W 046°20'  
2020-Jan-10 00:42S 23°12' W 043°26'2411.0
2020-Jan-09 22:30S 22°54' W 043°09'1 0.4
2020-Jan-09 18:58S 22°54' W 043°11'0 0.0
2020-Jan-09 17:28S 22°54' W 043°11'0 0.0
2020-Jan-09 14:22S 22°54' W 043°11'21 4.3
2020-Jan-09 09:30S 23°13' W 043°18'814.9
2020-Jan-09 09:00S 23°17' W 043°26'815.2
2020-Jan-09 08:29S 23°20' W 043°34'15713.3
2020-Jan-08 20:42S 23°60' W 046°20'2 7.3
2020-Jan-08 20:24S 23°59' W 046°17'2 2.0
2020-Jan-08 19:26S 23°57' W 046°19'0 0.0
2020-Jan-08 18:56S 23°57' W 046°19'0 0.0
2020-Jan-08 17:59S 23°57' W 046°19'0 0.0
2020-Jan-08 17:26S 23°57' W 046°19'0 0.0
2020-Jan-08 15:14S 23°57' W 046°19'0 0.0
2020-Jan-08 14:56S 23°57' W 046°19'0 0.0
2020-Jan-08 13:56S 23°57' W 046°19'0 0.0
2020-Jan-08 12:50S 23°57' W 046°19'1 0.3
2020-Jan-08 09:30S 23°58' W 046°18'3 6.2
2020-Jan-08 09:00S 24°00' W 046°20'  

Dump ship's entire track history